Chita-Kadala Airport
UIAA : now visible

Airfield :











YOU CAN JOIN US ON...

 
LOGIN :

Register | Disclaimer

   EN    FR    IT 

 









Legend :    VFR   Marginal VFR   IFR   Intensive IFR   Very Intensive IFR
Visi :
Ceiling :
>= 8 km
>= 3000ft
5 to 8 km
1000 to 3000 ft
1500m to 5 km
500 to 1000 ft
800 to 1500m
200 to 500 ft
< 800m
< 200 ft
Symbols :   Thunderstorms  Fog  Heavy snow  Heavy precipitations  Wind > 20 kt







- Airport Elevation : 2272 ft
- IATA code : HTA


UIAA - Chita-Kadala

CURRENT METAR :
  • 231400Z AUTO 24003MPS 130V290 9999 NCD 00/M13 Q1005 RMK QFE695/0927

EXPIRED METARs :
  • 231330Z AUTO 29005G10MPS 9999 NCD 00/M13 Q1005 RMK QFE695/0927
  • 231300Z AUTO 29005G10MPS 9999 NCD 00/M12 Q1005 RMK QFE695/0927
  • 231230Z 29005MPS 9999 NSC 01/M12 Q1005 R29/410160 NOSIG RMK QFE695/0927
  • 231200Z 29007G12MPS 9999 NSC 01/M12 Q1004 R29/410160 NOSIG RMK QFE695/0927
  • 231130Z 29008G13MPS 9999 NSC 02/M12 Q1004 R29/410160 NOSIG RMK QFE695/0927

TAF TAF UIAA
Valid from the 23 at 12:00 until the 24 at 12:00 UTC


231100Z 2312/2412 28005G10MPS 9999 SCT040CB
TEMPO 2312/2315 30010G16MPS
TEMPO 2403/2412 32012G17MPS
UIAA FIR / Asia



MET'MAP, your aeronautical weather chart ! - Copyright ORBIFLY December 2007 - Disclaimer

ORBIFLY MET'MAP TEAM :

Programming & Development : Alexandra Zaïnal
Concept & Development : Baudouin d'Aumeries
Co-Development & Prog : Marc-Olivier Méhu
Technical & hardware support : Manuel Goepfert

Contact : metmap@orbifly.com




SOURCES & CREDITS :

   NOAA       Earth
Advisory